createdAt,value
2022-11-10T00:03:10.195Z,65.01
2022-11-10T00:08:30.735Z,65.43
2022-11-10T00:14:09.379Z,65.46
2022-11-10T00:19:33.624Z,65.25
2022-11-10T00:24:53.864Z,64.90
2022-11-10T00:30:15.291Z,64.97
2022-11-10T00:35:35.541Z,65.26
2022-11-10T00:40:58.379Z,65.62
2022-11-10T00:46:18.738Z,64.49
2022-11-10T00:51:39.306Z,64.85
2022-11-10T00:56:59.700Z,64.77
2022-11-10T01:02:19.979Z,64.88
2022-11-10T01:07:40.490Z,64.74
2022-11-10T01:13:00.648Z,64.88
2022-11-10T01:18:20.893Z,64.83
2022-11-10T01:23:41.254Z,64.93
2022-11-10T01:29:01.751Z,65.06
2022-11-10T01:34:21.976Z,64.95
2022-11-10T01:39:42.270Z,64.45
2022-11-10T01:45:21.061Z,65.02
2022-11-10T01:50:42.190Z,64.90
2022-11-10T01:56:03.024Z,64.07
2022-11-10T02:01:24.415Z,64.59
2022-11-10T02:06:46.186Z,64.75
2022-11-10T02:12:06.697Z,65.05
2022-11-10T02:17:27.236Z,64.62
2022-11-10T02:22:47.865Z,65.13
2022-11-10T02:28:08.033Z,64.69
2022-11-10T02:33:28.299Z,64.81
2022-11-10T02:38:48.719Z,64.58
2022-11-10T02:44:09.161Z,65.14
2022-11-10T02:49:29.363Z,64.46
2022-11-10T02:54:49.663Z,64.86
2022-11-10T03:00:10.522Z,64.91
2022-11-10T03:05:31.264Z,64.60
2022-11-10T03:10:55.576Z,64.77
2022-11-10T03:16:16.001Z,64.38
2022-11-10T03:21:36.404Z,64.60
2022-11-10T03:26:56.768Z,65.24
2022-11-10T03:32:17.171Z,65.02
2022-11-10T03:37:37.569Z,64.33
2022-11-10T03:42:57.939Z,64.67
2022-11-10T03:48:18.470Z,64.28
2022-11-10T03:53:38.837Z,64.59
2022-11-10T03:58:59.083Z,64.83
2022-11-10T04:04:37.854Z,65.17
2022-11-10T04:09:58.483Z,64.86
2022-11-10T04:15:37.800Z,64.87
2022-11-10T04:21:01.855Z,64.77
2022-11-10T04:26:30.984Z,64.04
2022-11-10T04:31:51.260Z,64.75
2022-11-10T04:37:11.616Z,64.87
2022-11-10T04:42:32.188Z,64.81
2022-11-10T04:47:52.498Z,64.37
2022-11-10T04:53:12.883Z,64.88
2022-11-10T04:58:33.261Z,64.74
2022-11-10T05:03:54.195Z,65.06
2022-11-10T05:09:14.637Z,64.84
2022-11-10T05:14:34.920Z,64.82
2022-11-10T05:19:55.555Z,65.47
2022-11-10T05:25:15.819Z,64.58
2022-11-10T05:30:36.184Z,65.00
2022-11-10T05:35:56.433Z,65.08
2022-11-10T05:41:16.802Z,64.80
2022-11-10T05:46:37.015Z,65.19
2022-11-10T05:51:57.778Z,64.57
2022-11-10T05:57:17.994Z,64.56
2022-11-10T06:02:38.746Z,64.41
2022-11-10T06:07:59.359Z,64.29
2022-11-10T06:13:20.127Z,64.49
2022-11-10T06:18:40.863Z,64.89
2022-11-10T06:24:01.355Z,64.41
2022-11-10T06:29:26.467Z,63.88
2022-11-10T06:34:47.259Z,64.55
2022-11-10T06:40:08.398Z,64.36
2022-11-10T06:45:28.911Z,64.22
2022-11-10T06:50:49.130Z,64.36
2022-11-10T06:56:09.270Z,63.30
2022-11-10T07:01:29.882Z,64.18
2022-11-10T07:06:50.507Z,63.60
2022-11-10T07:12:11.082Z,63.55
2022-11-10T07:17:31.454Z,63.08
2022-11-10T07:22:56.831Z,63.20
2022-11-10T07:28:17.106Z,63.88
2022-11-10T07:33:37.373Z,63.74
2022-11-10T07:38:57.906Z,63.03
2022-11-10T07:44:18.207Z,62.26
2022-11-10T07:49:38.803Z,61.33
2022-11-10T07:54:59.177Z,61.59
2022-11-10T08:00:19.789Z,61.79
2022-11-10T08:05:39.871Z,61.65
2022-11-10T08:11:00.160Z,61.38
2022-11-10T08:16:20.281Z,61.78
2022-11-10T08:21:40.425Z,61.94
2022-11-10T08:27:00.928Z,61.92
2022-11-10T08:32:21.461Z,62.31
2022-11-10T08:37:41.708Z,62.55
2022-11-10T08:43:02.963Z,62.21
2022-11-10T08:48:23.131Z,61.76
2022-11-10T08:53:43.577Z,61.81
2022-11-10T08:59:03.707Z,61.37
2022-11-10T09:04:24.070Z,61.79
2022-11-10T09:10:01.410Z,61.54
2022-11-10T09:15:24.980Z,61.36
2022-11-10T09:20:45.415Z,61.55
2022-11-10T09:26:07.392Z,61.54
2022-11-10T09:31:27.834Z,60.86
2022-11-10T09:36:48.270Z,61.30
2022-11-10T09:42:28.701Z,61.48
2022-11-10T09:47:58.046Z,61.35
2022-11-10T09:53:24.907Z,61.03
2022-11-10T09:58:45.953Z,61.82
2022-11-10T10:04:15.575Z,61.78
2022-11-10T10:09:38.726Z,61.09
2022-11-10T10:15:25.728Z,61.76
2022-11-10T10:21:04.000Z,61.14
2022-11-10T10:26:27.023Z,60.90
2022-11-10T10:31:51.135Z,60.61
2022-11-10T10:37:36.801Z,61.38
2022-11-10T10:42:59.762Z,61.43
2022-11-10T10:48:24.818Z,61.19
2022-11-10T10:53:47.043Z,60.45
2022-11-10T10:59:18.353Z,60.43
2022-11-10T11:04:38.677Z,60.71
2022-11-10T11:10:00.701Z,60.52
2022-11-10T11:15:29.580Z,60.28
2022-11-10T11:20:52.931Z,59.64
2022-11-10T11:26:19.884Z,59.43
2022-11-10T11:31:49.203Z,58.93
2022-11-10T11:37:12.981Z,59.14
2022-11-10T11:42:38.624Z,58.59
2022-11-10T11:48:15.423Z,59.44
2022-11-10T11:53:41.625Z,59.58
2022-11-10T11:59:07.852Z,59.57
2022-11-10T12:04:37.712Z,59.50
2022-11-10T12:10:01.908Z,59.12
2022-11-10T12:15:29.053Z,60.00
2022-11-10T12:20:49.264Z,59.75
2022-11-10T12:26:09.419Z,60.26
2022-11-10T12:31:32.775Z,59.81
2022-11-10T12:36:53.364Z,60.16
2022-11-10T12:42:22.265Z,60.10
2022-11-10T12:47:45.245Z,60.45
2022-11-10T12:53:31.706Z,60.67
2022-11-10T12:59:10.680Z,60.28
2022-11-10T13:04:31.412Z,60.93
2022-11-10T13:09:51.861Z,60.50
2022-11-10T13:15:30.518Z,61.16
2022-11-10T13:20:54.247Z,61.22
2022-11-10T13:26:43.639Z,61.09
2022-11-10T13:32:16.062Z,61.16
2022-11-10T13:37:36.822Z,61.28
2022-11-10T13:42:58.403Z,61.00
2022-11-10T13:48:27.726Z,61.55
2022-11-10T13:54:02.322Z,61.25
2022-11-10T13:59:30.678Z,61.88
2022-11-10T14:04:51.143Z,61.49
2022-11-10T14:10:13.897Z,61.41
2022-11-10T14:15:36.972Z,61.59
2022-11-10T14:20:58.265Z,61.77
2022-11-10T14:26:39.598Z,61.73
2022-11-10T14:32:01.907Z,61.50
2022-11-10T14:37:23.984Z,61.05
2022-11-10T14:42:45.241Z,62.08
2022-11-10T14:48:12.660Z,61.74
2022-11-10T14:53:34.494Z,61.93
2022-11-10T14:58:55.978Z,61.90
2022-11-10T15:04:16.752Z,62.26
2022-11-10T15:09:37.768Z,61.54
2022-11-10T15:15:01.044Z,62.47
2022-11-10T15:20:33.600Z,61.56
2022-11-10T15:25:54.557Z,61.80
2022-11-10T15:31:23.312Z,62.54
2022-11-10T15:36:43.448Z,62.33
2022-11-10T15:42:12.807Z,61.84
2022-11-10T15:47:33.480Z,62.09
2022-11-10T15:52:53.713Z,62.10
2022-11-10T15:58:15.684Z,62.41
2022-11-10T16:03:36.428Z,62.38
2022-11-10T16:08:56.972Z,62.72
2022-11-10T16:14:18.099Z,61.94
2022-11-10T16:19:38.546Z,62.13
2022-11-10T16:24:58.737Z,62.69
2022-11-10T16:30:18.911Z,62.38
2022-11-10T16:35:39.710Z,62.17
2022-11-10T16:41:01.179Z,62.51
2022-11-10T16:46:22.975Z,62.56
2022-11-10T16:51:48.616Z,62.65
2022-11-10T16:57:13.163Z,62.42
2022-11-10T17:02:35.819Z,62.75
2022-11-10T17:07:58.798Z,62.91
2022-11-10T17:13:19.061Z,62.55
2022-11-10T17:18:39.375Z,62.80
2022-11-10T17:24:00.034Z,62.85
2022-11-10T17:29:21.310Z,63.01
2022-11-10T17:34:41.917Z,62.55
2022-11-10T17:40:07.343Z,62.23
2022-11-10T17:45:28.365Z,62.63
2022-11-10T17:50:48.752Z,62.56
2022-11-10T17:56:08.860Z,62.81
2022-11-10T18:01:29.418Z,63.01
2022-11-10T18:06:51.193Z,62.74
2022-11-10T18:12:12.084Z,63.10
2022-11-10T18:17:32.329Z,62.94
2022-11-10T18:22:53.166Z,63.28
2022-11-10T18:28:15.086Z,62.63
2022-11-10T18:33:36.960Z,63.00
2022-11-10T18:38:57.476Z,63.19
2022-11-10T18:44:18.818Z,63.66
2022-11-10T18:49:39.030Z,63.50
2022-11-10T18:54:59.698Z,63.73
2022-11-10T19:00:20.507Z,63.36
2022-11-10T19:05:42.754Z,63.74
2022-11-10T19:11:10.261Z,63.97
2022-11-10T19:16:30.753Z,64.08
2022-11-10T19:21:52.195Z,63.78
2022-11-10T19:27:13.814Z,64.40
2022-11-10T19:32:33.950Z,64.37
2022-11-10T19:37:55.272Z,64.44
2022-11-10T19:43:15.892Z,64.37
2022-11-10T19:48:36.580Z,63.70
2022-11-10T19:54:05.051Z,63.98
2022-11-10T19:59:25.482Z,64.34
2022-11-10T20:05:04.216Z,64.39
2022-11-10T20:10:24.649Z,64.15
2022-11-10T20:15:45.085Z,63.96
2022-11-10T20:21:12.678Z,64.17
2022-11-10T20:26:33.306Z,64.47
2022-11-10T20:31:53.594Z,64.03
2022-11-10T20:37:13.627Z,64.74
2022-11-10T20:42:37.784Z,64.37
2022-11-10T20:48:00.943Z,64.45
2022-11-10T20:53:21.826Z,64.35
2022-11-10T20:58:42.884Z,64.79
2022-11-10T21:04:05.754Z,64.70
2022-11-10T21:09:27.762Z,64.41
2022-11-10T21:14:48.040Z,64.24
2022-11-10T21:20:08.946Z,64.23
2022-11-10T21:25:29.253Z,64.84
2022-11-10T21:30:49.629Z,64.68
2022-11-10T21:36:11.098Z,64.39
2022-11-10T21:41:31.389Z,64.36
2022-11-10T21:46:51.764Z,63.89
2022-11-10T21:52:11.870Z,63.65
2022-11-10T21:57:32.497Z,63.75
2022-11-10T22:02:57.046Z,63.36
2022-11-10T22:08:21.733Z,63.63
2022-11-10T22:14:00.754Z,63.45
2022-11-10T22:19:21.192Z,64.00
2022-11-10T22:24:41.693Z,63.77
2022-11-10T22:30:01.823Z,63.96
2022-11-10T22:35:40.745Z,64.45
2022-11-10T22:41:19.835Z,64.09
2022-11-10T22:46:45.910Z,64.69
2022-11-10T22:52:05.959Z,65.00
2022-11-10T22:57:26.545Z,64.92
2022-11-10T23:02:46.960Z,65.22
2022-11-10T23:08:07.621Z,65.63
2022-11-10T23:13:28.408Z,65.27
2022-11-10T23:18:49.761Z,65.42
2022-11-10T23:24:09.873Z,65.32
2022-11-10T23:29:30.068Z,65.86
2022-11-10T23:34:50.456Z,65.53
2022-11-10T23:40:11.401Z,65.31
2022-11-10T23:46:00.139Z,65.42
2022-11-10T23:51:13.838Z,65.75
2022-11-10T23:56:34.312Z,66.12
